createdAt,value
2018-03-27T00:00:14.441Z,4.48
2018-03-27T00:01:14.401Z,4.55
2018-03-27T00:02:14.350Z,4.58
2018-03-27T00:03:14.315Z,4.60
2018-03-27T00:04:14.304Z,4.47
2018-03-27T00:05:14.231Z,4.50
2018-03-27T00:06:14.194Z,4.42
2018-03-27T00:07:14.143Z,4.50
2018-03-27T00:08:14.101Z,4.51
2018-03-27T00:09:14.056Z,4.50
2018-03-27T00:10:14.031Z,4.52
2018-03-27T00:11:13.970Z,4.45
2018-03-27T00:12:13.927Z,4.48
2018-03-27T00:13:13.890Z,4.45
2018-03-27T00:14:13.849Z,4.45
2018-03-27T00:15:13.840Z,4.50
2018-03-27T00:16:13.757Z,4.52
2018-03-27T00:17:13.722Z,4.42
2018-03-27T00:18:13.677Z,4.48
2018-03-27T00:19:13.627Z,4.30
2018-03-27T00:20:13.582Z,4.44
2018-03-27T00:21:13.567Z,4.29
2018-03-27T00:22:13.503Z,4.37
2018-03-27T00:23:13.466Z,4.42
2018-03-27T00:24:13.422Z,4.36
2018-03-27T00:25:13.377Z,4.29
2018-03-27T00:26:13.359Z,4.26
2018-03-27T00:27:13.285Z,4.30
2018-03-27T00:28:13.251Z,4.27
2018-03-27T00:29:13.204Z,4.36
2018-03-27T00:30:13.165Z,4.33
2018-03-27T00:31:13.117Z,4.30
2018-03-27T00:32:13.108Z,4.27
2018-03-27T00:33:13.028Z,4.37
2018-03-27T00:34:12.993Z,4.36
2018-03-27T00:35:12.944Z,4.27
2018-03-27T00:36:12.902Z,4.29
2018-03-27T00:37:12.855Z,4.30
2018-03-27T00:38:12.836Z,4.14
2018-03-27T00:39:12.772Z,4.23
2018-03-27T00:40:12.730Z,4.18
2018-03-27T00:41:12.738Z,4.06
2018-03-27T00:42:12.646Z,4.14
2018-03-27T00:43:12.632Z,4.06
2018-03-27T00:44:12.561Z,4.06
2018-03-27T00:45:12.518Z,4.08
2018-03-27T00:46:12.479Z,4.05
2018-03-27T00:47:12.431Z,3.98
2018-03-27T00:48:12.453Z,4.05
2018-03-27T00:49:12.348Z,4.08
2018-03-27T00:50:12.294Z,3.98
2018-03-27T00:51:12.258Z,4.05
2018-03-27T00:52:12.214Z,4.02
2018-03-27T00:53:12.200Z,3.97
2018-03-27T00:54:12.124Z,3.80
2018-03-27T00:55:12.092Z,3.78
2018-03-27T00:56:12.049Z,3.78
2018-03-27T00:57:12.000Z,3.73
2018-03-27T00:58:11.958Z,3.86
2018-03-27T00:59:11.942Z,3.80
2018-03-27T01:00:11.871Z,3.86
2018-03-27T01:01:11.825Z,3.91
2018-03-27T01:02:11.785Z,3.93
2018-03-27T01:03:11.742Z,3.76
2018-03-27T01:04:11.702Z,3.80
2018-03-27T01:05:11.679Z,3.90
2018-03-27T01:06:11.618Z,3.87
2018-03-27T01:07:11.562Z,3.87
2018-03-27T01:08:11.534Z,3.72
2018-03-27T01:09:11.476Z,3.69
2018-03-27T01:10:11.469Z,3.66
2018-03-27T01:11:11.390Z,3.60
2018-03-27T01:12:11.351Z,3.48
2018-03-27T01:13:11.308Z,3.47
2018-03-27T01:14:11.264Z,3.33
2018-03-27T01:15:11.220Z,3.35
2018-03-27T01:16:11.212Z,3.28
2018-03-27T01:17:11.129Z,3.23
2018-03-27T01:18:11.094Z,3.24
2018-03-27T01:19:11.046Z,3.28
2018-03-27T01:20:11.004Z,3.23
2018-03-27T01:21:10.959Z,3.20
2018-03-27T01:22:10.934Z,3.24
2018-03-27T01:23:10.868Z,3.18
2018-03-27T01:24:10.830Z,3.24
2018-03-27T01:25:10.788Z,3.21
2018-03-27T01:26:10.734Z,3.21
2018-03-27T01:27:10.728Z,3.17
2018-03-27T01:28:10.657Z,3.14
2018-03-27T01:29:10.603Z,2.96
2018-03-27T01:30:10.564Z,2.97
2018-03-27T01:31:10.522Z,3.00
2018-03-27T01:32:10.474Z,2.82
2018-03-27T01:33:10.461Z,2.79
2018-03-27T01:34:10.386Z,2.78
2018-03-27T01:35:10.345Z,2.85
2018-03-27T01:36:10.315Z,2.74
2018-03-27T01:37:10.259Z,2.69
2018-03-27T01:38:10.222Z,2.71
2018-03-27T01:39:10.197Z,2.71
2018-03-27T01:40:10.126Z,2.67
2018-03-27T01:41:10.082Z,2.61
2018-03-27T01:42:10.039Z,2.52
2018-03-27T01:43:09.999Z,2.56
2018-03-27T01:44:09.974Z,2.59
2018-03-27T01:45:09.914Z,2.72
2018-03-27T01:46:09.860Z,2.78
2018-03-27T01:47:09.828Z,2.72
2018-03-27T01:48:09.782Z,2.79
2018-03-27T01:49:09.726Z,2.77
2018-03-27T01:50:09.713Z,2.71
2018-03-27T01:51:09.647Z,2.64
2018-03-27T01:52:09.600Z,2.61
2018-03-27T01:53:09.554Z,2.67
2018-03-27T01:54:09.504Z,2.67
2018-03-27T01:55:09.471Z,2.66
2018-03-27T01:56:09.448Z,2.69
2018-03-27T01:57:09.382Z,2.67
2018-03-27T01:58:09.328Z,2.63
2018-03-27T01:59:09.288Z,2.69
2018-03-27T02:00:09.244Z,2.72
2018-03-27T02:01:09.228Z,2.72
2018-03-27T02:02:09.162Z,2.63
2018-03-27T02:03:09.116Z,2.66
2018-03-27T02:04:09.083Z,2.57
2018-03-27T02:05:09.028Z,2.59
2018-03-27T02:06:09.006Z,2.53
2018-03-27T02:07:08.938Z,2.57
2018-03-27T02:08:08.913Z,2.59
2018-03-27T02:09:08.848Z,2.52
2018-03-27T02:10:08.811Z,2.49
2018-03-27T02:11:08.775Z,2.46
2018-03-27T02:12:08.713Z,2.43
2018-03-27T02:13:08.673Z,2.36
2018-03-27T02:14:08.630Z,2.24
2018-03-27T02:15:08.577Z,2.21
2018-03-27T02:16:08.557Z,2.21
2018-03-27T02:17:08.501Z,2.21
2018-03-27T02:18:08.451Z,2.21
2018-03-27T02:19:08.411Z,2.07
2018-03-27T02:20:08.366Z,2.10
2018-03-27T02:21:08.336Z,2.07
2018-03-27T02:22:08.276Z,1.99
2018-03-27T02:23:08.220Z,2.10
2018-03-27T02:24:08.186Z,1.98
2018-03-27T02:25:08.137Z,2.07
2018-03-27T02:26:08.123Z,2.09
2018-03-27T02:27:08.061Z,2.10
2018-03-27T02:28:08.010Z,2.06
2018-03-27T02:29:07.972Z,2.03
2018-03-27T02:30:07.913Z,2.02
2018-03-27T02:31:07.873Z,2.05
2018-03-27T02:32:07.857Z,2.05
2018-03-27T02:33:07.778Z,2.05
2018-03-27T02:34:07.744Z,1.93
2018-03-27T02:35:07.696Z,1.91
2018-03-27T02:36:07.643Z,1.99
2018-03-27T02:37:07.616Z,1.95
2018-03-27T02:38:07.578Z,1.95
2018-03-27T02:39:07.536Z,1.88
2018-03-27T02:40:07.484Z,1.88
2018-03-27T02:41:07.437Z,2.00
2018-03-27T02:42:07.380Z,2.07
2018-03-27T02:43:07.370Z,2.03
2018-03-27T02:44:07.293Z,2.12
2018-03-27T02:45:07.250Z,2.07
2018-03-27T02:46:07.209Z,2.12
2018-03-27T02:47:07.159Z,2.10
2018-03-27T02:48:07.111Z,2.05
2018-03-27T02:49:07.104Z,1.95
2018-03-27T02:50:07.023Z,1.95
2018-03-27T02:51:06.980Z,1.88
2018-03-27T02:52:06.948Z,2.06
2018-03-27T02:53:06.889Z,2.16
2018-03-27T02:54:06.846Z,2.16
2018-03-27T02:55:06.825Z,2.16
2018-03-27T02:56:06.758Z,2.09
2018-03-27T02:57:06.711Z,2.03
2018-03-27T02:58:06.670Z,1.88
2018-03-27T02:59:06.631Z,1.88
2018-03-27T03:00:06.608Z,1.91
2018-03-27T03:01:06.538Z,2.00
2018-03-27T03:02:06.490Z,1.98
2018-03-27T03:03:06.442Z,1.91
2018-03-27T03:04:06.396Z,1.90
2018-03-27T03:05:06.376Z,1.86
2018-03-27T03:06:06.320Z,1.83
2018-03-27T03:07:06.260Z,1.90
2018-03-27T03:08:06.220Z,1.80
2018-03-27T03:09:06.183Z,1.87
2018-03-27T03:10:06.147Z,1.86
2018-03-27T03:11:06.085Z,1.88
2018-03-27T03:12:06.040Z,1.83
2018-03-27T03:13:05.992Z,1.91
2018-03-27T03:14:05.954Z,1.99
2018-03-27T03:15:05.933Z,1.88
2018-03-27T03:16:05.868Z,1.91
2018-03-27T03:17:05.812Z,1.87
2018-03-27T03:18:05.775Z,1.88
2018-03-27T03:19:05.780Z,1.87
2018-03-27T03:20:05.714Z,1.83
2018-03-27T03:21:05.639Z,1.73
2018-03-27T03:22:05.589Z,1.87
2018-03-27T03:23:05.558Z,1.87
2018-03-27T03:24:05.511Z,1.90
2018-03-27T03:25:05.484Z,1.98
2018-03-27T03:26:05.412Z,1.88
2018-03-27T03:27:05.361Z,1.95
2018-03-27T03:28:05.321Z,2.07
2018-03-27T03:29:05.283Z,2.10
2018-03-27T03:30:05.266Z,1.95
2018-03-27T03:31:05.204Z,1.95
2018-03-27T03:32:05.142Z,1.87
2018-03-27T03:33:05.098Z,1.87
2018-03-27T03:34:05.049Z,1.79
2018-03-27T03:35:05.019Z,1.83
2018-03-27T03:36:05.001Z,1.79
2018-03-27T03:37:04.923Z,1.77
2018-03-27T03:38:04.895Z,1.77
2018-03-27T03:39:04.838Z,1.76
2018-03-27T03:40:04.784Z,1.77
2018-03-27T03:41:04.744Z,1.77
2018-03-27T03:42:04.728Z,1.72
2018-03-27T03:43:04.657Z,1.79
2018-03-27T03:44:04.611Z,1.70
2018-03-27T03:45:04.568Z,1.68
2018-03-27T03:46:04.518Z,1.58
2018-03-27T03:47:04.488Z,1.59
2018-03-27T03:48:04.434Z,1.58
2018-03-27T03:49:04.387Z,1.51
2018-03-27T03:50:04.341Z,1.62
2018-03-27T03:51:04.291Z,1.54
2018-03-27T03:52:04.272Z,1.48
2018-03-27T03:53:04.256Z,1.54
2018-03-27T03:54:04.159Z,1.55
2018-03-27T03:55:04.113Z,1.48
2018-03-27T03:56:04.077Z,1.54
2018-03-27T03:57:04.027Z,1.41
2018-03-27T03:58:04.008Z,1.45
2018-03-27T03:59:03.950Z,1.26
2018-03-27T04:00:03.890Z,1.40
2018-03-27T04:01:03.844Z,1.32
2018-03-27T04:02:03.831Z,1.26
2018-03-27T04:03:03.775Z,1.26
2018-03-27T04:04:03.718Z,1.30
2018-03-27T04:05:03.671Z,1.16
2018-03-27T04:06:03.633Z,1.30
2018-03-27T04:07:03.577Z,1.32
2018-03-27T04:08:03.524Z,1.44
2018-03-27T04:09:03.517Z,1.33
2018-03-27T04:10:03.438Z,1.29
2018-03-27T04:11:03.397Z,1.32
2018-03-27T04:12:03.347Z,1.24
2018-03-27T04:13:03.301Z,1.32
2018-03-27T04:14:03.256Z,1.29
2018-03-27T04:15:03.234Z,1.29
2018-03-27T04:16:03.183Z,1.30
2018-03-27T04:17:03.127Z,1.33
2018-03-27T04:18:03.077Z,1.32
2018-03-27T04:19:03.037Z,1.18
2018-03-27T04:20:02.991Z,1.29
2018-03-27T04:21:02.973Z,1.16
2018-03-27T04:22:02.897Z,1.18
2018-03-27T04:23:02.848Z,1.22
2018-03-27T04:24:02.808Z,1.14
2018-03-27T04:25:02.756Z,1.14
2018-03-27T04:26:02.717Z,1.18
2018-03-27T04:27:02.688Z,1.22
2018-03-27T04:28:02.626Z,1.34
2018-03-27T04:29:02.576Z,1.24
2018-03-27T04:30:02.532Z,1.24
2018-03-27T04:31:02.492Z,1.14
2018-03-27T04:32:02.479Z,1.14
2018-03-27T04:33:02.393Z,1.12
2018-03-27T04:34:02.353Z,1.16
2018-03-27T04:35:02.300Z,1.18
2018-03-27T04:36:02.260Z,1.14
2018-03-27T04:37:02.210Z,1.16
2018-03-27T04:38:02.214Z,1.08
2018-03-27T04:39:02.121Z,1.02
2018-03-27T04:40:02.081Z,1.05
2018-03-27T04:41:02.040Z,1.04
2018-03-27T04:42:01.989Z,1.02
2018-03-27T04:43:01.972Z,1.00
2018-03-27T04:44:01.899Z,1.02
2018-03-27T04:45:01.847Z,0.93
2018-03-27T04:46:01.812Z,0.93
2018-03-27T04:47:01.763Z,1.00
2018-03-27T04:48:01.717Z,1.08
2018-03-27T04:49:01.701Z,0.98
2018-03-27T04:50:01.621Z,1.00
2018-03-27T04:51:01.579Z,1.00
2018-03-27T04:52:01.531Z,1.09
2018-03-27T04:53:01.494Z,1.09
2018-03-27T04:54:01.469Z,1.08
2018-03-27T04:55:01.402Z,1.15
2018-03-27T04:56:01.356Z,1.20
2018-03-27T04:57:01.309Z,1.30
2018-03-27T04:58:01.259Z,1.15
2018-03-27T04:59:01.219Z,1.22
2018-03-27T05:00:01.202Z,1.23
2018-03-27T05:01:01.125Z,1.09
2018-03-27T05:02:01.074Z,1.12
2018-03-27T05:03:01.042Z,1.15
2018-03-27T05:04:00.996Z,1.14
2018-03-27T05:05:00.940Z,1.11
2018-03-27T05:06:00.918Z,1.08
2018-03-27T05:07:00.854Z,1.00
2018-03-27T05:08:00.810Z,1.00
2018-03-27T05:09:00.759Z,1.05
2018-03-27T05:10:00.726Z,0.98
2018-03-27T05:11:00.698Z,0.91
2018-03-27T05:12:00.664Z,0.96
2018-03-27T05:13:00.589Z,0.91
2018-03-27T05:14:00.531Z,0.87
2018-03-27T05:15:00.495Z,0.88
2018-03-27T05:16:00.468Z,0.94
2018-03-27T05:17:00.400Z,0.98
2018-03-27T05:18:00.352Z,1.18
2018-03-27T05:19:00.309Z,1.29
2018-03-27T05:20:00.256Z,1.52
2018-03-27T05:21:00.250Z,1.62
2018-03-27T05:22:00.166Z,1.73
2018-03-27T05:23:00.135Z,1.69
2018-03-27T05:24:00.074Z,1.79
2018-03-27T05:25:00.035Z,1.76
2018-03-27T05:25:59.988Z,1.83
2018-03-27T05:26:59.972Z,1.90
2018-03-27T05:27:59.906Z,1.77
2018-03-27T05:28:59.855Z,1.80
2018-03-27T05:29:59.817Z,1.79
2018-03-27T05:30:59.766Z,1.87
2018-03-27T05:31:59.719Z,1.91
2018-03-27T05:32:59.696Z,2.06
2018-03-27T05:33:59.620Z,2.05
2018-03-27T05:34:59.614Z,2.00
2018-03-27T05:35:59.541Z,1.99
2018-03-27T05:36:59.495Z,2.12
2018-03-27T05:37:59.470Z,2.07
2018-03-27T05:38:59.402Z,2.30
2018-03-27T05:39:59.353Z,2.54
2018-03-27T05:40:59.310Z,2.89
2018-03-27T05:41:59.270Z,3.10
2018-03-27T05:42:59.225Z,3.43
2018-03-27T05:43:59.212Z,3.47
2018-03-27T05:44:59.141Z,3.35
2018-03-27T05:45:59.081Z,3.39
2018-03-27T05:46:59.042Z,3.58
2018-03-27T05:47:58.999Z,3.48
2018-03-27T05:48:58.943Z,3.35
2018-03-27T05:49:58.933Z,3.39
2018-03-27T05:50:58.856Z,3.28
2018-03-27T05:51:58.816Z,3.28
2018-03-27T05:52:58.775Z,3.47
2018-03-27T05:53:58.727Z,3.39
2018-03-27T05:54:58.711Z,3.58
2018-03-27T05:55:58.679Z,3.48
2018-03-27T05:56:58.598Z,3.43
2018-03-27T05:57:58.549Z,3.42
2018-03-27T05:58:58.516Z,3.48
2018-03-27T05:59:58.461Z,3.47
2018-03-27T06:00:58.447Z,3.48
2018-03-27T06:01:58.374Z,3.47
2018-03-27T06:02:58.326Z,3.43
2018-03-27T06:03:58.287Z,3.48
2018-03-27T06:04:58.242Z,3.51
2018-03-27T06:05:58.190Z,3.61
2018-03-27T06:06:58.174Z,3.86
2018-03-27T06:07:58.128Z,3.76
2018-03-27T06:08:58.062Z,3.79
2018-03-27T06:09:58.022Z,3.79
2018-03-27T06:10:57.980Z,3.94
2018-03-27T06:11:57.996Z,4.02
2018-03-27T06:12:57.883Z,3.97
2018-03-27T06:13:57.841Z,4.11
2018-03-27T06:14:57.792Z,4.09
2018-03-27T06:15:57.761Z,4.44
2018-03-27T06:16:57.718Z,5.02
2018-03-27T06:17:57.716Z,5.86
2018-03-27T06:18:57.627Z,6.43
2018-03-27T06:19:57.576Z,7.02
2018-03-27T06:20:57.529Z,7.31
2018-03-27T06:21:57.494Z,7.39
2018-03-27T06:22:57.449Z,7.86
2018-03-27T06:23:57.434Z,8.12
2018-03-27T06:24:57.365Z,8.20
2018-03-27T06:25:57.313Z,8.40
2018-03-27T06:26:57.276Z,8.25
2018-03-27T06:27:57.234Z,8.05
2018-03-27T06:28:57.192Z,8.58
2018-03-27T06:29:57.166Z,8.70
2018-03-27T06:30:57.109Z,8.99
2018-03-27T06:31:57.069Z,9.48
2018-03-27T06:32:57.016Z,9.84
2018-03-27T06:33:56.979Z,10.12
2018-03-27T06:34:56.966Z,9.53
2018-03-27T06:35:56.891Z,9.13
2018-03-27T06:36:56.862Z,9.04
2018-03-27T06:37:56.826Z,8.95
2018-03-27T06:38:56.773Z,9.23
2018-03-27T06:39:56.730Z,9.42
2018-03-27T06:40:56.714Z,9.76
2018-03-27T06:41:56.662Z,9.96
2018-03-27T06:42:56.610Z,10.02
2018-03-27T06:43:56.571Z,10.04
2018-03-27T06:44:56.531Z,10.01
2018-03-27T06:45:56.515Z,10.45
2018-03-27T06:46:56.445Z,10.29
2018-03-27T06:47:56.402Z,10.30
2018-03-27T06:48:56.364Z,9.81
2018-03-27T06:49:56.318Z,9.86
2018-03-27T06:50:56.287Z,9.90
2018-03-27T06:51:56.273Z,10.04
2018-03-27T06:52:56.205Z,10.40
2018-03-27T06:53:56.168Z,10.63
2018-03-27T06:54:56.119Z,10.66
2018-03-27T06:55:56.077Z,10.78
2018-03-27T06:56:56.070Z,10.38
2018-03-27T06:57:56.005Z,10.82
2018-03-27T06:58:55.967Z,10.94
2018-03-27T06:59:55.918Z,11.07
2018-03-27T07:00:55.890Z,10.85
2018-03-27T07:01:55.872Z,10.74
2018-03-27T07:02:55.839Z,10.79
2018-03-27T07:03:55.787Z,11.00
2018-03-27T07:04:55.728Z,11.07
2018-03-27T07:05:55.709Z,10.78
2018-03-27T07:06:55.656Z,10.47
2018-03-27T07:07:55.651Z,10.79
2018-03-27T07:08:55.613Z,10.94
2018-03-27T07:09:55.539Z,11.04
2018-03-27T07:10:55.501Z,10.33
2018-03-27T07:11:55.454Z,10.63
2018-03-27T07:12:55.420Z,10.91
2018-03-27T07:13:55.439Z,10.94
2018-03-27T07:14:55.339Z,10.78
2018-03-27T07:15:55.336Z,11.11
2018-03-27T07:16:55.273Z,11.21
2018-03-27T07:17:55.221Z,11.22
2018-03-27T07:18:55.210Z,11.42
2018-03-27T07:19:55.163Z,11.90
2018-03-27T07:20:55.118Z,11.83
2018-03-27T07:21:55.072Z,11.28
2018-03-27T07:22:55.044Z,11.52
2018-03-27T07:23:55.020Z,11.60
2018-03-27T07:24:54.957Z,11.33
2018-03-27T07:25:54.928Z,10.99
2018-03-27T07:26:54.938Z,10.84
2018-03-27T07:27:54.850Z,9.81
2018-03-27T07:28:54.815Z,9.39
2018-03-27T07:29:54.801Z,9.21
2018-03-27T07:30:54.735Z,9.58
2018-03-27T07:31:54.698Z,10.05
2018-03-27T07:32:54.658Z,10.44
2018-03-27T07:33:54.625Z,10.55
2018-03-27T07:34:54.591Z,9.57
2018-03-27T07:35:54.576Z,9.66
2018-03-27T07:36:54.519Z,9.68
2018-03-27T07:37:54.478Z,9.90
2018-03-27T07:38:54.430Z,9.64
2018-03-27T07:39:54.394Z,10.18
2018-03-27T07:40:54.390Z,10.64
2018-03-27T07:41:54.328Z,10.36
2018-03-27T07:42:54.286Z,9.68
2018-03-27T07:43:54.248Z,9.84
2018-03-27T07:44:54.217Z,10.38
2018-03-27T07:45:54.205Z,10.71
2018-03-27T07:46:54.133Z,10.97
2018-03-27T07:47:54.109Z,11.03
2018-03-27T07:48:54.066Z,11.24
2018-03-27T07:49:54.026Z,11.60
2018-03-27T07:50:53.987Z,11.52
2018-03-27T07:51:53.982Z,11.43
2018-03-27T07:52:53.922Z,11.49
2018-03-27T07:53:53.952Z,11.76
2018-03-27T07:54:54.067Z,10.86
2018-03-27T07:55:53.822Z,11.02
2018-03-27T07:56:53.823Z,10.64
2018-03-27T07:57:53.805Z,10.51
2018-03-27T07:58:53.709Z,10.73
2018-03-27T07:59:53.690Z,10.61
2018-03-27T08:00:53.635Z,10.67
2018-03-27T08:01:53.583Z,10.68
2018-03-27T08:02:53.629Z,10.61
2018-03-27T08:03:53.555Z,10.71
2018-03-27T08:04:53.489Z,11.02
2018-03-27T08:05:53.439Z,11.39
2018-03-27T08:06:53.408Z,11.29
2018-03-27T08:07:53.383Z,11.39
2018-03-27T08:08:53.415Z,11.32
2018-03-27T08:09:53.318Z,11.40
2018-03-27T08:10:53.271Z,11.83
2018-03-27T08:11:53.274Z,11.91
2018-03-27T08:12:53.189Z,12.21
2018-03-27T08:13:53.150Z,12.24
2018-03-27T08:14:53.153Z,12.27
2018-03-27T08:15:53.103Z,12.54
2018-03-27T08:16:53.046Z,12.74
2018-03-27T08:17:53.011Z,12.54
2018-03-27T08:18:52.989Z,12.28
2018-03-27T08:19:52.946Z,12.23
2018-03-27T08:20:52.942Z,11.03
2018-03-27T08:21:52.876Z,10.12
2018-03-27T08:22:52.835Z,9.72
2018-03-27T08:23:52.836Z,9.71
2018-03-27T08:24:52.766Z,9.26
2018-03-27T08:25:52.732Z,8.98
2018-03-27T08:26:52.728Z,8.86
2018-03-27T08:27:52.664Z,8.68
2018-03-27T08:28:52.621Z,8.87
2018-03-27T08:29:52.590Z,8.95
2018-03-27T08:30:52.545Z,9.02
2018-03-27T08:31:52.516Z,9.15
2018-03-27T08:32:52.502Z,9.36
2018-03-27T08:33:52.443Z,9.40
2018-03-27T08:34:52.405Z,9.58
2018-03-27T08:35:52.368Z,9.84
2018-03-27T08:36:52.347Z,9.90
2018-03-27T08:37:52.308Z,10.47
2018-03-27T08:38:52.281Z,10.55
2018-03-27T08:39:52.218Z,10.67
2018-03-27T08:40:52.176Z,10.09
2018-03-27T08:41:52.152Z,9.68
2018-03-27T08:42:52.110Z,9.50
2018-03-27T08:43:52.064Z,9.46
2018-03-27T08:44:52.069Z,9.90
2018-03-27T08:45:51.990Z,10.85
2018-03-27T08:46:51.962Z,11.29
2018-03-27T08:47:51.919Z,11.86
2018-03-27T08:48:51.886Z,12.31
2018-03-27T08:49:51.855Z,12.67
2018-03-27T08:50:51.844Z,12.95
2018-03-27T08:51:51.782Z,13.36
2018-03-27T08:52:51.747Z,13.28
2018-03-27T08:53:51.709Z,13.04
2018-03-27T08:54:51.692Z,12.89
2018-03-27T08:55:51.634Z,12.37
2018-03-27T08:56:51.624Z,11.67
2018-03-27T08:57:51.556Z,10.79
2018-03-27T08:58:51.525Z,10.60
2018-03-27T08:59:51.515Z,10.61
2018-03-27T09:00:51.461Z,10.59
2018-03-27T09:01:51.419Z,10.71
2018-03-27T09:02:51.408Z,10.81
2018-03-27T09:03:51.344Z,11.21
2018-03-27T09:04:51.320Z,11.51
2018-03-27T09:05:51.276Z,11.36
2018-03-27T09:06:51.246Z,12.01
2018-03-27T09:07:51.209Z,11.80
2018-03-27T09:08:51.200Z,12.64
2018-03-27T09:09:51.127Z,12.27
2018-03-27T09:10:51.103Z,12.74
2018-03-27T09:11:51.061Z,13.29
2018-03-27T09:12:51.024Z,13.52
2018-03-27T09:13:51.019Z,14.09
2018-03-27T09:14:50.956Z,14.62
2018-03-27T09:15:50.928Z,14.70
2018-03-27T09:16:50.892Z,14.35
2018-03-27T09:17:50.847Z,14.36
2018-03-27T09:18:50.826Z,13.77
2018-03-27T09:19:50.807Z,13.01
2018-03-27T09:20:50.751Z,12.65
2018-03-27T09:21:50.714Z,12.28
2018-03-27T09:22:50.687Z,11.98
2018-03-27T09:23:50.647Z,11.47
2018-03-27T09:24:50.647Z,10.96
2018-03-27T09:25:50.582Z,10.99
2018-03-27T09:26:50.543Z,11.22
2018-03-27T09:27:50.506Z,11.02
2018-03-27T09:28:50.484Z,10.92
2018-03-27T09:29:50.447Z,11.04
2018-03-27T09:30:50.442Z,11.17
2018-03-27T09:31:50.382Z,11.11
2018-03-27T09:32:50.344Z,11.24
2018-03-27T09:33:50.307Z,11.51
2018-03-27T09:34:50.264Z,11.83
2018-03-27T09:35:50.230Z,11.88
2018-03-27T09:36:50.229Z,11.86
2018-03-27T09:37:50.163Z,11.94
2018-03-27T09:38:50.141Z,11.54
2018-03-27T09:39:50.091Z,11.22
2018-03-27T09:40:50.067Z,11.04
2018-03-27T09:41:50.022Z,11.03
2018-03-27T09:42:50.017Z,10.94
2018-03-27T09:43:49.957Z,11.02
2018-03-27T09:44:49.920Z,11.02
2018-03-27T09:45:49.889Z,11.10
2018-03-27T09:46:49.840Z,10.79
2018-03-27T09:47:49.809Z,10.76
2018-03-27T09:48:49.806Z,10.84
2018-03-27T09:49:49.739Z,10.71
2018-03-27T09:50:49.708Z,10.73
2018-03-27T09:51:49.665Z,10.63
2018-03-27T09:52:49.630Z,10.59
2018-03-27T09:53:49.591Z,10.73
2018-03-27T09:54:49.588Z,10.71
2018-03-27T09:55:49.522Z,10.71
2018-03-27T09:56:49.485Z,10.64
2018-03-27T09:57:49.458Z,10.64
2018-03-27T09:58:49.409Z,10.67
2018-03-27T09:59:49.367Z,10.71
2018-03-27T10:00:49.367Z,10.63
2018-03-27T10:01:49.296Z,10.59
2018-03-27T10:02:49.255Z,10.56
2018-03-27T10:03:49.233Z,10.60
2018-03-27T10:04:49.188Z,10.55
2018-03-27T10:05:49.147Z,10.53
2018-03-27T10:06:49.133Z,10.51
2018-03-27T10:07:49.070Z,10.51
2018-03-27T10:08:49.083Z,10.20
2018-03-27T10:09:49.013Z,10.11
2018-03-27T10:10:48.976Z,9.97
2018-03-27T10:11:48.923Z,10.01
2018-03-27T10:12:48.909Z,10.04
2018-03-27T10:13:48.843Z,10.07
2018-03-27T10:14:48.813Z,10.22
2018-03-27T10:15:48.827Z,10.22
2018-03-27T10:16:48.728Z,10.40
2018-03-27T10:17:48.691Z,10.32
2018-03-27T10:18:48.685Z,10.25
2018-03-27T10:19:48.616Z,10.22
2018-03-27T10:20:48.584Z,10.32
2018-03-27T10:21:48.542Z,10.38
2018-03-27T10:22:48.505Z,10.38
2018-03-27T10:23:48.465Z,10.53
2018-03-27T10:24:48.462Z,10.59
2018-03-27T10:25:48.401Z,10.55
2018-03-27T10:26:48.352Z,10.59
2018-03-27T10:27:48.315Z,10.61
2018-03-27T10:28:48.277Z,10.71
2018-03-27T10:29:48.245Z,10.78
2018-03-27T10:30:48.233Z,10.94
2018-03-27T10:31:48.170Z,11.07
2018-03-27T10:32:48.138Z,11.24
2018-03-27T10:33:48.089Z,11.25
2018-03-27T10:34:48.055Z,11.49
2018-03-27T10:35:48.010Z,11.70
2018-03-27T10:36:48.022Z,11.65
2018-03-27T10:37:47.952Z,11.49
2018-03-27T10:38:47.935Z,11.76
2018-03-27T10:39:47.856Z,12.19
2018-03-27T10:40:47.833Z,12.37
2018-03-27T10:41:47.783Z,12.90
2018-03-27T10:42:47.793Z,12.89
2018-03-27T10:43:47.705Z,13.14
2018-03-27T10:44:47.678Z,13.38
2018-03-27T10:45:47.633Z,13.54
2018-03-27T10:46:47.609Z,13.41
2018-03-27T10:47:47.580Z,12.59
2018-03-27T10:48:47.564Z,12.83
2018-03-27T10:49:47.496Z,13.00
2018-03-27T10:50:47.467Z,12.89
2018-03-27T10:51:47.423Z,13.03
2018-03-27T10:52:47.411Z,13.23
2018-03-27T10:53:47.363Z,13.22
2018-03-27T10:54:47.365Z,13.05
2018-03-27T10:55:47.289Z,13.01
2018-03-27T10:56:47.258Z,13.03
2018-03-27T10:57:47.250Z,13.28
2018-03-27T10:58:47.184Z,13.54
2018-03-27T10:59:47.195Z,13.48
2018-03-27T11:00:47.121Z,13.25
2018-03-27T11:01:47.087Z,13.42
2018-03-27T11:02:47.053Z,13.54
2018-03-27T11:03:47.030Z,13.46
2018-03-27T11:04:47.002Z,13.05
2018-03-27T11:05:46.986Z,12.64
2018-03-27T11:06:46.929Z,12.65
2018-03-27T11:07:46.901Z,12.64
2018-03-27T11:08:46.845Z,12.77
2018-03-27T11:09:46.887Z,12.57
2018-03-27T11:10:46.780Z,12.82
2018-03-27T11:11:46.782Z,12.87
2018-03-27T11:12:46.719Z,12.72
2018-03-27T11:13:46.677Z,12.56
2018-03-27T11:14:46.650Z,12.54
2018-03-27T11:15:46.614Z,12.46
2018-03-27T11:16:46.595Z,12.56
2018-03-27T11:17:46.561Z,12.54
2018-03-27T11:18:46.508Z,12.62
2018-03-27T11:19:46.477Z,12.59
2018-03-27T11:20:46.467Z,12.54
2018-03-27T11:21:46.440Z,12.28
2018-03-27T11:22:46.369Z,12.10
2018-03-27T11:23:46.325Z,12.05
2018-03-27T11:24:46.299Z,12.01
2018-03-27T11:25:46.265Z,12.16
2018-03-27T11:26:46.252Z,12.13
2018-03-27T11:27:46.198Z,12.02
2018-03-27T11:28:46.185Z,11.69
2018-03-27T11:29:46.135Z,11.69
2018-03-27T11:30:46.099Z,11.61
2018-03-27T11:31:46.089Z,11.58
2018-03-27T11:32:46.008Z,11.32
2018-03-27T11:33:45.985Z,11.32
2018-03-27T11:34:45.947Z,11.27
2018-03-27T11:35:45.908Z,11.32
2018-03-27T11:36:45.878Z,11.32
2018-03-27T11:37:45.849Z,11.32
2018-03-27T11:38:45.796Z,11.24
2018-03-27T11:39:45.755Z,11.32
2018-03-27T11:40:45.718Z,11.32
2018-03-27T11:41:45.691Z,11.33
2018-03-27T11:42:45.652Z,11.52
2018-03-27T11:43:45.661Z,11.64
2018-03-27T11:44:45.585Z,11.73
2018-03-27T11:45:45.535Z,11.88
2018-03-27T11:46:45.498Z,11.54
2018-03-27T11:47:45.466Z,11.73
2018-03-27T11:48:45.427Z,12.13
2018-03-27T11:49:45.465Z,12.47
2018-03-27T11:50:45.358Z,12.97
2018-03-27T11:51:45.330Z,12.93
2018-03-27T11:52:45.278Z,13.25
2018-03-27T11:53:45.242Z,13.10
2018-03-27T11:54:45.215Z,13.38
2018-03-27T11:55:45.240Z,13.14
2018-03-27T11:56:45.166Z,13.20
2018-03-27T11:57:45.105Z,13.23
2018-03-27T11:58:45.103Z,13.19
2018-03-27T11:59:45.034Z,13.14
2018-03-27T12:00:44.995Z,13.19
2018-03-27T12:01:45.002Z,13.23
2018-03-27T12:02:44.930Z,13.00
2018-03-27T12:03:44.900Z,12.79
2018-03-27T12:04:44.863Z,12.56
2018-03-27T12:05:44.849Z,12.65
2018-03-27T12:06:44.840Z,12.79
2018-03-27T12:07:44.770Z,12.85
2018-03-27T12:08:44.731Z,12.79
2018-03-27T12:09:44.700Z,12.65
2018-03-27T12:10:44.660Z,12.54
2018-03-27T12:11:44.620Z,12.39
2018-03-27T12:12:44.619Z,12.41
2018-03-27T12:13:44.820Z,12.52
2018-03-27T12:14:44.521Z,12.28
2018-03-27T12:15:44.487Z,12.20
2018-03-27T12:16:44.461Z,12.02
2018-03-27T12:17:44.410Z,12.10
2018-03-27T12:18:44.429Z,12.24
2018-03-27T12:19:44.346Z,12.28
2018-03-27T12:20:44.317Z,12.20
2018-03-27T12:21:44.282Z,12.17
2018-03-27T12:22:44.243Z,12.17
2018-03-27T12:23:44.206Z,12.09
2018-03-27T12:24:44.200Z,11.98
2018-03-27T12:25:44.139Z,11.98
2018-03-27T12:26:44.094Z,12.04
2018-03-27T12:27:44.069Z,12.10
2018-03-27T12:28:44.021Z,12.21
2018-03-27T12:29:43.995Z,12.32
2018-03-27T12:30:43.971Z,12.37
2018-03-27T12:31:43.941Z,12.46
2018-03-27T12:32:43.885Z,12.47
2018-03-27T12:33:43.846Z,12.37
2018-03-27T12:34:43.816Z,12.28
2018-03-27T12:35:43.771Z,12.41
2018-03-27T12:36:43.766Z,12.46
2018-03-27T12:37:43.699Z,12.39
2018-03-27T12:38:43.665Z,12.27
2018-03-27T12:39:43.638Z,12.29
2018-03-27T12:40:43.586Z,12.47
2018-03-27T12:41:43.550Z,12.65
2018-03-27T12:42:43.541Z,12.78
2018-03-27T12:43:43.479Z,12.86
2018-03-27T12:44:43.453Z,12.95
2018-03-27T12:45:43.399Z,12.90
2018-03-27T12:46:43.381Z,12.92
2018-03-27T12:47:43.352Z,12.92
2018-03-27T12:48:43.316Z,12.92
2018-03-27T12:49:43.270Z,12.77
2018-03-27T12:50:43.223Z,12.82
2018-03-27T12:51:43.185Z,12.68
2018-03-27T12:52:43.152Z,12.54
2018-03-27T12:53:43.144Z,12.41
2018-03-27T12:54:43.072Z,12.46
2018-03-27T12:55:43.043Z,12.38
2018-03-27T12:56:43.010Z,12.31
2018-03-27T12:57:42.973Z,12.28
2018-03-27T12:58:42.928Z,12.24
2018-03-27T12:59:42.927Z,12.21
2018-03-27T13:00:42.859Z,12.20
2018-03-27T13:01:42.823Z,12.14
2018-03-27T13:02:42.777Z,12.17
2018-03-27T13:03:42.740Z,12.20
2018-03-27T13:04:42.747Z,12.23
2018-03-27T13:05:42.696Z,12.04